Time;durP1;ratioP1;P1;durP2;ratioP2;P2;SDS_P1;SDS_P2;PMS_P1;PMS_P2;Temp;Humidity;BMP_temperature;BMP_pressure;BME280_temperature;BME280_humidity;BME280_pressure;Samples;Min_cycle;Max_cycle;Signal;HPM_P1;HPM_P2
2024/01/08 00:01:50;;;;;;;20.90;20.00;;;;;;;-141.02;100.00;97466.91;5112426;28;20203;-69
2024/01/08 00:04:17;;;;;;;20.93;20.03;;;;;;;-141.02;100.00;97466.91;5112461;28;20723;-68
2024/01/08 00:06:44;;;;;;;21.40;20.50;;;;;;;-141.02;100.00;97217.22;5112742;28;20193;-69
2024/01/08 00:09:11;;;;;;;21.80;20.90;;;;;;;-141.02;100.00;96967.56;5112074;28;20224;-68
2024/01/08 00:11:54;;;;;;;21.97;21.07;;;;;;;-141.02;100.00;97217.22;5112811;28;20193;-68
2024/01/08 00:14:20;;;;;;;22.17;21.17;;;;;;;-141.02;100.00;97217.22;5115880;28;20287;-70
2024/01/08 00:17:15;;;;;;;22.40;21.40;;;;;;;-141.02;100.00;97217.22;5116730;28;20182;-69
2024/01/08 00:19:42;;;;;;;21.60;20.70;;;;;;;-141.02;100.00;96967.56;5115979;28;20675;-69
2024/01/08 00:22:12;;;;;;;21.10;20.20;;;;;;;-141.02;100.00;96967.56;5116338;28;20205;-69
2024/01/08 00:24:46;;;;;;;22.00;21.10;;;;;;;-141.02;100.00;96967.56;5116245;28;20225;-69
2024/01/08 00:27:15;;;;;;;21.80;20.90;;;;;;;-141.02;100.00;96468.31;5115979;28;20236;-68
2024/01/08 00:29:42;;;;;;;22.40;21.40;;;;;;;-141.02;100.00;96218.69;5116027;28;20256;-68
2024/01/08 00:32:09;;;;;;;21.60;20.70;;;;;;;-141.02;100.00;96218.69;5115854;28;20193;-68
2024/01/08 00:34:36;;;;;;;21.60;20.70;;;;;;;-141.02;100.00;95969.13;5115770;28;20288;-67
2024/01/08 00:37:03;;;;;;;25.17;24.07;;;;;;;-141.02;100.00;95719.53;5116111;28;20204;-66
2024/01/08 00:39:30;;;;;;;23.20;22.20;;;;;;;-141.02;100.00;95719.53;5115954;28;20734;-66
2024/01/08 00:41:57;;;;;;;23.43;22.43;;;;;;;-141.02;100.00;95969.13;5115784;28;20280;-66
2024/01/08 00:44:26;;;;;;;22.73;21.73;;;;;;;-141.02;100.00;96218.69;5115609;28;20292;-66
2024/01/08 00:46:52;;;;;;;22.23;21.33;;;;;;;-141.02;100.00;95969.13;5115497;28;20754;-66
2024/01/08 00:49:19;;;;;;;22.38;21.48;;;;;;;-141.02;100.00;95969.13;5115728;28;20280;-66
2024/01/08 00:51:46;;;;;;;24.50;23.40;;;;;;;-141.02;100.00;95719.53;5115734;28;20288;-66
2024/01/08 00:54:13;;;;;;;23.53;22.53;;;;;;;-141.02;100.00;95719.53;5115677;28;20193;-67
2024/01/08 00:56:40;;;;;;;23.37;22.37;;;;;;;-141.02;100.00;95470.00;5115340;28;20240;-67
2024/01/08 00:59:07;;;;;;;23.70;22.70;;;;;;;-141.02;100.00;94970.94;5115281;28;20564;-68
2024/01/08 01:01:36;;;;;;;23.77;22.77;;;;;;;-141.02;100.00;95220.47;5115271;28;20677;-67
2024/01/08 01:04:15;;;;;;;22.90;21.90;;;;;;;-141.02;100.00;94970.94;5115496;28;20189;-66
2024/01/08 01:06:42;;;;;;;22.80;21.80;;;;;;;-141.02;100.00;94970.94;5115138;28;20655;-69
2024/01/08 01:09:10;;;;;;;23.80;22.80;;;;;;;-141.02;100.00;94970.94;5115375;28;20284;-66
2024/01/08 01:11:37;;;;;;;24.37;23.27;;;;;;;-141.02;100.00;95220.47;5115070;28;20203;-68
2024/01/08 01:14:04;;;;;;;22.60;21.60;;;;;;;-141.02;100.00;94970.94;5115079;28;20193;-67
2024/01/08 01:16:32;;;;;;;25.30;24.20;;;;;;;-141.02;100.00;94970.94;5115281;28;20189;-67
2024/01/08 01:19:01;;;;;;;25.37;24.27;;;;;;;-141.02;100.00;94970.94;5114970;27;20200;-67
2024/01/08 01:21:28;;;;;;;24.50;23.40;;;;;;;-141.02;100.00;94471.97;5115434;28;20204;-67
2024/01/08 01:23:55;;;;;;;24.93;23.83;;;;;;;-141.02;100.00;94222.50;5113717;28;20243;-68
2024/01/08 01:26:28;;;;;;;25.93;24.73;;;;;;;-141.02;100.00;93973.06;5114815;28;20225;-67
2024/01/08 01:28:55;;;;;;;25.23;24.13;;;;;;;-141.02;100.00;93973.06;5114712;28;20189;-68
2024/01/08 01:31:21;;;;;;;24.17;23.10;;;;;;;-141.02;100.00;93973.06;5114889;28;20256;-68
2024/01/08 01:33:48;;;;;;;23.87;22.87;;;;;;;-141.02;100.00;94222.50;5114910;28;20193;-68
2024/01/08 01:36:17;;;;;;;23.50;22.50;;;;;;;-141.02;100.00;93973.06;5114953;28;20189;-68
2024/01/08 01:38:44;;;;;;;23.67;22.67;;;;;;;-141.02;100.00;93973.06;5114585;28;20722;-69
2024/01/08 01:41:17;;;;;;;24.30;23.30;;;;;;;-141.02;100.00;93973.06;5114573;28;20232;-68
2024/01/08 01:43:44;;;;;;;23.13;22.13;;;;;;;-141.02;100.00;93973.06;5114717;28;20204;-68
2024/01/08 01:46:22;;;;;;;23.73;22.73;;;;;;;-141.02;100.00;93973.06;5114740;28;20236;-68
2024/01/08 01:48:49;;;;;;;23.00;22.00;;;;;;;-141.02;100.00;93723.63;5114375;28;20196;-67
2024/01/08 01:51:18;;;;;;;23.57;22.57;;;;;;;-141.02;100.00;93973.06;5114484;28;20247;-68
2024/01/08 01:53:46;;;;;;;22.77;21.80;;;;;;;-141.02;100.00;93973.06;5114456;28;20280;-68
2024/01/08 01:56:14;;;;;;;23.50;22.50;;;;;;;-141.02;100.00;93973.06;5114168;28;20196;-68
2024/01/08 01:58:41;;;;;;;24.17;23.17;;;;;;;-141.02;100.00;93973.06;5114189;28;20686;-68
2024/01/08 02:01:08;;;;;;;24.40;23.40;;;;;;;-141.02;100.00;93973.06;5114397;28;20196;-68
2024/01/08 02:03:36;;;;;;;22.90;21.90;;;;;;;-141.02;100.00;93723.63;5114355;28;20288;-67
2024/01/08 02:06:07;;;;;;;24.23;23.23;;;;;;;-141.02;100.00;93723.63;5114078;28;20288;-67
2024/01/08 02:08:36;;;;;;;24.47;23.43;;;;;;;-141.02;100.00;93723.63;5114024;28;20682;-67
2024/01/08 02:11:03;;;;;;;23.73;22.73;;;;;;;-141.02;100.00;93723.63;5114183;28;20312;-67
2024/01/08 02:13:30;;;;;;;24.00;23.00;;;;;;;-141.02;100.00;93474.22;5114099;28;20197;-68
2024/01/08 02:15:57;;;;;;;24.50;23.40;;;;;;;-141.02;100.00;93474.22;5113907;28;20229;-68
2024/01/08 02:18:24;;;;;;;23.87;22.87;;;;;;;-141.02;100.00;93474.22;5113972;28;20204;-68
2024/01/08 02:20:51;;;;;;;25.60;24.50;;;;;;;-141.02;100.00;93474.22;5113768;28;20280;-68
2024/01/08 02:23:19;;;;;;;23.93;22.93;;;;;;;-141.02;100.00;93224.84;5113653;28;20239;-69
2024/01/08 02:25:46;;;;;;;23.63;22.63;;;;;;;-141.02;100.00;93224.84;5113790;28;20193;-68
2024/01/08 02:28:13;;;;;;;24.30;23.30;;;;;;;-141.02;100.00;92975.47;5113582;28;20225;-68
2024/01/08 02:30:40;;;;;;;27.43;26.23;;;;;;;-141.02;100.00;92975.47;5113653;28;20239;-69
2024/01/08 02:33:07;;;;;;;25.20;24.10;;;;;;;-141.02;100.00;92975.47;5113490;28;20799;-69
2024/01/08 02:35:36;;;;;;;23.80;22.80;;;;;;;-141.02;100.00;92975.47;5113559;28;20232;-70
2024/01/08 02:38:03;;;;;;;25.53;24.43;;;;;;;-141.02;100.00;92975.47;5113334;28;20195;-70
2024/01/08 02:40:32;;;;;;;24.77;23.67;;;;;;;-141.02;100.00;92726.13;5113323;28;20189;-69
2024/01/08 02:42:59;;;;;;;23.77;22.77;;;;;;;-141.02;100.00;92726.13;5113268;28;20235;-69
2024/01/08 02:45:26;;;;;;;21.50;20.60;;;;;;;-141.02;100.00;92476.78;5113177;28;20594;-68
2024/01/08 02:47:53;;;;;;;22.23;21.33;;;;;;;-141.02;100.00;92227.47;5113225;28;20289;-69
2024/01/08 02:50:20;;;;;;;23.70;22.70;;;;;;;-141.02;100.00;92227.47;5113409;28;20229;-69
2024/01/08 02:52:47;;;;;;;24.37;23.37;;;;;;;-141.02;100.00;92476.78;5113419;28;20280;-69
2024/01/08 02:55:14;;;;;;;24.30;23.30;;;;;;;-141.02;100.00;92476.78;5113342;28;20204;-68
2024/01/08 02:57:42;;;;;;;27.57;26.37;;;;;;;-141.02;100.00;92726.13;5113046;28;20197;-69
2024/01/08 03:00:12;;;;;;;22.60;21.70;;;;;;;-141.02;100.00;92726.13;5113333;28;20203;-69
2024/01/08 03:02:39;;;;;;;24.63;23.63;;;;;;;-141.02;100.00;92476.78;5112980;28;20280;-68
2024/01/08 03:05:06;;;;;;;22.90;22.00;;;;;;;-141.02;100.00;92476.78;5113179;28;20577;-68
2024/01/08 03:07:33;;;;;;;24.03;23.03;;;;;;;-141.02;100.00;92476.78;5113179;28;20265;-68
2024/01/08 03:10:00;;;;;;;21.73;20.83;;;;;;;-141.02;100.00;92476.78;5112768;28;20196;-67
2024/01/08 03:12:27;;;;;;;26.03;24.93;;;;;;;-141.02;100.00;92227.47;5112771;28;20730;-68
2024/01/08 03:14:55;;;;;;;23.40;22.40;;;;;;;-141.02;100.00;92227.47;5112719;28;20795;-68
2024/01/08 03:17:22;;;;;;;23.30;22.30;;;;;;;-141.02;100.00;92227.47;5113283;28;20201;-68
2024/01/08 03:19:50;;;;;;;25.40;24.30;;;;;;;-141.02;100.00;92227.47;5113021;28;20192;-68
2024/01/08 03:22:17;;;;;;;25.43;24.33;;;;;;;-141.02;100.00;92227.47;5112622;28;20193;-67
2024/01/08 03:24:44;;;;;;;23.70;22.70;;;;;;;-141.02;100.00;92227.47;5112488;28;20686;-67
2024/01/08 03:27:11;;;;;;;23.70;22.70;;;;;;;-141.02;100.00;92227.47;5112903;28;20199;-69
2024/01/08 03:29:41;;;;;;;24.13;23.13;;;;;;;-141.02;100.00;91978.16;5112897;28;20659;-69
2024/01/08 03:32:11;;;;;;;24.20;23.20;;;;;;;-141.02;100.00;92227.47;5112839;28;20313;-70
2024/01/08 03:34:38;;;;;;;22.37;21.47;;;;;;;-141.02;100.00;92227.47;5112812;28;20264;-68
2024/01/08 03:37:05;;;;;;;23.43;22.43;;;;;;;-141.02;100.00;91978.16;5113052;28;20224;-68
2024/01/08 03:39:32;;;;;;;23.97;22.97;;;;;;;-141.02;100.00;92227.47;5112459;28;20284;-68
2024/01/08 03:41:59;;;;;;;23.57;22.57;;;;;;;-141.02;100.00;92227.47;5112752;28;20220;-68
2024/01/08 03:44:26;;;;;;;23.57;22.57;;;;;;;-141.02;100.00;92227.47;5112703;28;20276;-68
2024/01/08 03:46:53;;;;;;;23.70;22.70;;;;;;;-141.02;100.00;91978.16;5113491;28;20638;-68
2024/01/08 03:49:21;;;;;;;23.10;22.10;;;;;;;-141.02;100.00;92476.78;5116967;28;20196;-68
2024/01/08 03:51:48;;;;;;;22.10;21.20;;;;;;;-141.02;100.00;92476.78;5116520;28;20312;-68
2024/01/08 03:54:15;;;;;;;21.70;20.80;;;;;;;-141.02;100.00;92227.47;5116863;28;20228;-67
2024/01/08 03:56:42;;;;;;;21.87;20.97;;;;;;;-141.02;100.00;91978.16;5116503;28;20197;-67
2024/01/08 03:59:22;;;;;;;20.87;19.97;;;;;;;-141.02;100.00;92227.47;5116783;28;20629;-67
2024/01/08 04:01:50;;;;;;;21.50;20.60;;;;;;;-141.02;100.00;92227.47;5116698;28;20196;-66
2024/01/08 04:04:17;;;;;;;20.67;19.87;;;;;;;-141.02;100.00;92227.47;5116619;28;20228;-68
2024/01/08 04:06:47;;;;;;;20.00;19.20;;;;;;;-141.02;100.00;92227.47;5116652;28;20204;-71
2024/01/08 04:09:17;;;;;;;20.40;19.60;;;;;;;-141.02;100.00;92227.47;5116258;28;20667;-68
2024/01/08 04:11:44;;;;;;;21.00;20.20;;;;;;;-141.02;100.00;92476.78;5116393;28;20312;-69
2024/01/08 04:14:12;;;;;;;19.40;18.70;;;;;;;-141.02;100.00;92476.78;5116277;28;20225;-69
2024/01/08 04:16:39;;;;;;;21.57;20.77;;;;;;;-141.02;100.00;92726.13;5116345;28;20221;-69
2024/01/08 04:19:06;;;;;;;19.40;18.70;;;;;;;-141.02;100.00;92975.47;5116326;28;20280;-70
2024/01/08 04:21:33;;;;;;;19.93;19.13;;;;;;;-141.02;100.00;92975.47;5115993;28;20284;-69
2024/01/08 04:24:01;;;;;;;19.47;18.77;;;;;;;-141.02;100.00;93224.84;5116305;28;20711;-69
2024/01/08 04:26:28;;;;;;;20.47;19.67;;;;;;;-141.02;100.00;93224.84;5116259;28;20199;-70
2024/01/08 04:28:55;;;;;;;21.47;20.67;;;;;;;-141.02;100.00;93224.84;5116197;28;20288;-71
2024/01/08 04:31:22;;;;;;;21.00;20.20;;;;;;;-141.02;100.00;93474.22;5116360;28;20311;-70
2024/01/08 04:33:49;;;;;;;21.43;20.63;;;;;;;-141.02;100.00;93474.22;5115957;28;20280;-70
2024/01/08 04:36:17;;;;;;;20.57;19.77;;;;;;;-141.02;100.00;93723.63;5115809;28;20639;-69
2024/01/08 04:38:45;;;;;;;21.03;20.23;;;;;;;-141.02;100.00;93723.63;5115657;28;20197;-72
2024/01/08 04:41:19;;;;;;;20.90;20.10;;;;;;;-141.02;100.00;93973.06;5116000;28;20253;-70
2024/01/08 04:43:46;;;;;;;19.10;18.40;;;;;;;-141.02;100.00;93973.06;5115589;28;20186;-69
2024/01/08 04:46:14;;;;;;;20.93;20.17;;;;;;;-141.02;100.00;94222.50;5115526;28;20279;-70
2024/01/08 04:48:41;;;;;;;21.57;20.77;;;;;;;-141.02;100.00;94222.50;5115803;28;20280;-72
2024/01/08 04:51:08;;;;;;;20.53;19.83;;;;;;;-141.02;100.00;94471.97;5115741;28;20308;-69
2024/01/08 04:53:36;;;;;;;20.93;20.17;;;;;;;-141.02;100.00;94721.44;5115799;28;20280;-71
2024/01/08 04:56:03;;;;;;;22.03;21.23;;;;;;;-141.02;100.00;94970.94;5115397;28;20203;-70
2024/01/08 04:58:32;;;;;;;21.27;20.47;;;;;;;-141.02;100.00;94970.94;5115850;28;20208;-70
2024/01/08 05:00:59;;;;;;;21.67;20.87;;;;;;;-141.02;100.00;94970.94;5115262;28;20288;-70
2024/01/08 05:03:26;;;;;;;20.13;19.43;;;;;;;-141.02;100.00;95220.47;5115496;28;20197;-69
2024/01/08 05:05:53;;;;;;;21.57;20.77;;;;;;;-141.02;100.00;95220.47;5115521;28;20280;-70
2024/01/08 05:08:20;;;;;;;22.10;21.30;;;;;;;-141.02;100.00;95220.47;5115417;28;20189;-68
2024/01/08 05:10:47;;;;;;;24.27;23.37;;;;;;;-141.02;100.00;95220.47;5115101;28;20694;-70
2024/01/08 05:13:14;;;;;;;23.97;23.07;;;;;;;-141.02;100.00;95220.47;5115019;28;20228;-70
2024/01/08 05:15:42;;;;;;;24.90;23.93;;;;;;;-141.02;100.00;95220.47;5114919;28;20315;-69
2024/01/08 05:18:09;;;;;;;25.10;24.13;;;;;;;-141.02;100.00;95220.47;5115278;28;20193;-71
2024/01/08 05:20:36;;;;;;;26.23;25.20;;;;;;;-141.02;100.00;95220.47;5115162;28;20189;-69
2024/01/08 05:23:04;;;;;;;25.33;24.33;;;;;;;-141.02;100.00;94721.44;5115169;28;20610;-71
2024/01/08 05:25:33;;;;;;;20.47;19.77;;;;;;;-141.02;100.00;94471.97;5115049;28;20200;-71
2024/01/08 05:28:00;;;;;;;20.20;19.50;;;;;;;-141.02;100.00;94471.97;5115073;28;20193;-70
2024/01/08 05:30:27;;;;;;;22.10;21.27;;;;;;;-141.02;100.00;94471.97;5115945;28;20189;-70
2024/01/08 05:32:55;;;;;;;20.70;19.90;;;;;;;-141.02;100.00;94222.50;5114617;28;20229;-69
2024/01/08 05:35:22;;;;;;;19.27;18.57;;;;;;;-141.02;100.00;94222.50;5114923;28;20201;-70
2024/01/08 05:37:49;;;;;;;18.67;18.03;;;;;;;-141.02;100.00;93973.06;5114914;28;20221;-70
2024/01/08 05:40:16;;;;;;;19.77;19.07;;;;;;;-141.02;100.00;93723.63;5114881;28;20288;-71
2024/01/08 05:42:43;;;;;;;18.60;17.90;;;;;;;-141.02;100.00;93474.22;5114549;28;20197;-70
2024/01/08 05:45:11;;;;;;;17.70;17.10;;;;;;;-141.02;100.00;93474.22;5115011;28;20284;-70
2024/01/08 05:47:38;;;;;;;17.43;16.83;;;;;;;-141.02;100.00;93224.84;5114369;28;20192;-72
2024/01/08 05:50:07;;;;;;;16.27;15.73;;;;;;;-141.02;100.00;92726.13;5114302;28;20197;-69
2024/01/08 05:52:34;;;;;;;17.60;17.00;;;;;;;-141.02;100.00;92476.78;5114864;28;20229;-70
2024/01/08 05:55:01;;;;;;;14.90;14.40;;;;;;;-141.02;100.00;92227.47;5114524;28;20194;-70
2024/01/08 05:57:28;;;;;;;16.47;15.93;;;;;;;-141.02;100.00;91978.16;5114583;28;20228;-70
2024/01/08 05:59:55;;;;;;;16.90;16.30;;;;;;;-141.02;100.00;91728.88;5114145;28;20261;-70
2024/01/08 06:02:22;;;;;;;16.53;15.93;;;;;;;-141.02;100.00;91479.63;5114073;28;20197;-69
2024/01/08 06:04:49;;;;;;;15.77;15.27;;;;;;;-141.02;100.00;91230.38;5114040;28;20189;-71
2024/01/08 06:07:17;;;;;;;17.30;16.70;;;;;;;-141.02;100.00;91230.38;5114302;28;20205;-70
2024/01/08 06:09:44;;;;;;;16.37;15.77;;;;;;;-141.02;100.00;90731.94;5113411;28;20250;-71
2024/01/08 06:12:11;;;;;;;18.13;17.43;;;;;;;-141.02;100.00;90482.72;5114061;28;20312;-71
2024/01/08 06:14:41;;;;;;;17.27;16.67;;;;;;;-141.02;100.00;90482.72;5113897;28;20304;-71
2024/01/08 06:17:08;;;;;;;16.23;15.73;;;;;;;-141.02;100.00;90233.56;5114368;28;20194;-71
2024/01/08 06:19:35;;;;;;;14.63;14.13;;;;;;;-141.02;100.00;89735.28;5114092;28;20197;-70
2024/01/08 06:22:02;;;;;;;17.27;16.67;;;;;;;-141.02;100.00;89237.03;5114108;28;20192;-70
2024/01/08 06:24:31;;;;;;;15.40;14.90;;;;;;;-141.02;100.00;89237.03;5113926;28;20280;-72
2024/01/08 06:26:58;;;;;;;14.83;14.33;;;;;;;-141.02;100.00;89237.03;5113584;28;20193;-70
2024/01/08 06:29:24;;;;;;;14.90;14.40;;;;;;;-141.02;100.00;88987.97;5113871;28;20212;-70
2024/01/08 06:31:51;;;;;;;16.63;16.03;;;;;;;-141.02;100.00;89237.03;5113400;28;20694;-71
2024/01/08 06:34:18;;;;;;;16.00;15.40;;;;;;;-141.02;100.00;88738.88;5113800;28;20200;-69
2024/01/08 06:36:45;;;;;;;13.97;13.57;;;;;;;-141.02;100.00;88489.84;5113662;28;20272;-70
2024/01/08 06:39:13;;;;;;;14.97;14.47;;;;;;;-141.02;100.00;88240.81;5113693;28;20276;-68
2024/01/08 06:41:41;;;;;;;16.90;16.30;;;;;;;-141.02;100.00;88489.84;5113300;28;20197;-69
2024/01/08 06:44:08;;;;;;;17.37;16.73;;;;;;;-141.02;100.00;88738.88;5113286;28;20193;-69
2024/01/08 06:46:35;;;;;;;15.40;14.90;;;;;;;-141.02;100.00;88987.97;5113277;28;20228;-68
2024/01/08 06:49:02;;;;;;;15.30;14.80;;;;;;;-141.02;100.00;88738.88;5113226;28;20651;-70
2024/01/08 06:51:29;;;;;;;16.50;15.90;;;;;;;-141.02;100.00;89237.03;5113419;28;20252;-70
2024/01/08 06:53:56;;;;;;;17.57;16.87;;;;;;;-141.02;100.00;89486.16;5113115;28;20196;-70
2024/01/08 06:56:23;;;;;;;16.60;15.97;;;;;;;-141.02;100.00;89735.28;5113317;28;20201;-69
2024/01/08 06:58:51;;;;;;;15.77;15.17;;;;;;;-141.02;100.00;89735.28;5113417;28;20231;-71
2024/01/08 07:01:18;;;;;;;17.20;16.50;;;;;;;-141.02;100.00;90233.56;5113184;28;20272;-71
2024/01/08 07:03:45;;;;;;;17.20;16.50;;;;;;;-141.02;100.00;90482.72;5113195;28;20193;-69
2024/01/08 07:06:12;;;;;;;15.40;14.80;;;;;;;-141.02;100.00;90731.94;5113168;28;20284;-73
2024/01/08 07:08:39;;;;;;;16.57;15.97;;;;;;;-141.02;100.00;91230.38;5113155;28;20197;-69
2024/01/08 07:11:06;;;;;;;16.20;15.50;;;;;;;-141.02;100.00;91230.38;5112777;28;20288;-69
2024/01/08 07:13:33;;;;;;;16.73;16.13;;;;;;;-141.02;100.00;91230.38;5113139;28;20193;-69
2024/01/08 07:16:03;;;;;;;14.47;13.97;;;;;;;-141.02;100.00;91230.38;5112976;28;20286;-69
2024/01/08 07:18:31;;;;;;;14.07;13.57;;;;;;;-141.02;100.00;90731.94;5113031;28;20250;-70
2024/01/08 07:20:57;;;;;;;16.07;15.47;;;;;;;-141.02;100.00;90731.94;5112135;28;20233;-70
2024/01/08 07:23:25;;;;;;;16.50;15.90;;;;;;;-141.02;100.00;90731.94;5112386;28;20295;-68
2024/01/08 07:25:52;;;;;;;15.83;15.23;;;;;;;-141.02;100.00;90482.72;5112630;28;20196;-69
2024/01/08 07:28:19;;;;;;;14.40;13.90;;;;;;;-141.02;100.00;90233.56;5112890;28;20193;-69
2024/01/08 07:30:46;;;;;;;16.60;16.00;;;;;;;-141.02;100.00;89984.41;5112719;28;20705;-69
2024/01/08 07:33:15;;;;;;;17.27;16.57;;;;;;;-141.02;100.00;89486.16;5112477;28;20278;-69
2024/01/08 07:35:42;;;;;;;16.40;15.80;;;;;;;-141.02;100.00;89486.16;5112488;28;20682;-70
2024/01/08 07:38:09;;;;;;;18.33;17.53;;;;;;;-141.02;100.00;89486.16;5112506;28;20663;-68
2024/01/08 07:40:36;;;;;;;15.13;14.63;;;;;;;-141.02;100.00;89486.16;5112766;28;20193;-70
2024/01/08 07:43:03;;;;;;;15.70;15.10;;;;;;;-141.02;100.00;89237.03;5112781;28;20613;-68
2024/01/08 07:45:30;;;;;;;17.90;17.20;;;;;;;-141.02;100.00;89486.16;5112730;28;20189;-69
2024/01/08 07:47:58;;;;;;;18.83;18.03;;;;;;;-141.02;100.00;89237.03;5112422;28;20279;-72
2024/01/08 07:50:26;;;;;;;17.07;16.43;;;;;;;-141.02;100.00;88987.97;5112891;28;20203;-69
2024/01/08 07:52:53;;;;;;;17.00;16.40;;;;;;;-141.02;100.00;88738.88;5112490;28;20714;-68
2024/01/08 07:55:20;;;;;;;17.73;17.03;;;;;;;-141.02;100.00;88489.84;5112320;28;20192;-69
2024/01/08 07:57:48;;;;;;;18.30;17.50;;;;;;;-141.02;100.00;88489.84;5112251;28;20574;-69
2024/01/08 08:00:15;;;;;;;17.10;16.40;;;;;;;-141.02;100.00;88489.84;5112223;28;20730;-68
2024/01/08 08:02:42;;;;;;;17.10;16.40;;;;;;;-141.02;100.00;88489.84;5112535;28;20224;-69
2024/01/08 08:05:08;;;;;;;18.60;17.80;;;;;;;-141.02;100.00;88489.84;5112160;28;20197;-70
2024/01/08 08:07:37;;;;;;;18.77;17.97;;;;;;;-141.02;100.00;88240.81;5112511;28;20197;-68
2024/01/08 08:10:04;;;;;;;18.97;18.17;;;;;;;-141.02;100.00;87991.81;5112324;28;20284;-68
2024/01/08 08:12:32;;;;;;;17.10;16.43;;;;;;;-141.02;100.00;87991.81;5112027;28;20227;-68
2024/01/08 08:14:59;;;;;;;17.83;17.13;;;;;;;-141.02;100.00;88240.81;5112062;28;20233;-68
2024/01/08 08:17:26;;;;;;;19.10;18.30;;;;;;;-141.02;100.00;88240.81;5112336;28;20201;-68
2024/01/08 08:19:53;;;;;;;18.93;18.13;;;;;;;-141.02;100.00;88489.84;5112653;28;20197;-68
2024/01/08 08:22:20;;;;;;;17.70;17.00;;;;;;;-141.02;100.00;88240.81;5112331;28;20193;-70
2024/01/08 08:24:48;;;;;;;17.10;16.40;;;;;;;-141.02;100.00;87991.81;5112215;28;20189;-67
2024/01/08 08:27:16;;;;;;;17.97;17.20;;;;;;;-141.02;100.00;87991.81;5111963;28;20201;-68
2024/01/08 08:29:45;;;;;;;18.60;17.80;;;;;;;-141.02;100.00;88240.81;5112481;28;20203;-68
2024/01/08 08:32:12;;;;;;;16.80;16.20;;;;;;;-141.02;100.00;87991.81;5112456;28;20220;-68
2024/01/08 08:34:40;;;;;;;14.90;14.40;;;;;;;-141.02;100.00;87493.84;5116150;28;20304;-69
2024/01/08 08:37:07;;;;;;;16.53;15.93;;;;;;;-141.02;100.00;86995.94;5116126;28;20197;-67
2024/01/08 08:39:34;;;;;;;16.30;15.70;;;;;;;-141.02;100.00;86747.00;5115762;28;20678;-67
2024/01/08 08:42:03;;;;;;;17.23;16.53;;;;;;;-141.02;100.00;86249.22;5115968;28;20565;-68
2024/01/08 08:44:30;;;;;;;15.03;14.53;;;;;;;-141.02;100.00;85751.50;5116224;28;20193;-67
2024/01/08 08:47:09;;;;;;;15.97;15.37;;;;;;;-141.02;100.00;84756.25;5115887;28;20189;-68
2024/01/08 08:49:36;;;;;;;18.40;17.60;;;;;;;-141.02;100.00;84756.25;5115751;28;20604;-67
2024/01/08 08:52:03;;;;;;;17.50;16.80;;;;;;;-141.02;100.00;84010.03;5115640;28;20307;-67
2024/01/08 08:54:30;;;;;;;17.07;16.47;;;;;;;-141.02;100.00;83512.63;5115437;28;20726;-68
2024/01/08 08:56:57;;;;;;;16.80;16.20;;;;;;;-141.02;100.00;83512.63;5115445;28;20285;-67
2024/01/08 08:59:25;;;;;;;18.27;17.47;;;;;;;-141.02;100.00;83263.97;5115417;28;20583;-69
2024/01/08 09:01:52;;;;;;;18.67;17.87;;;;;;;-141.02;100.00;83015.31;5115661;28;20193;-67
2024/01/08 09:04:19;;;;;;;17.57;16.87;;;;;;;-141.02;100.00;83015.31;5115539;28;20200;-67
2024/01/08 09:10:09;;;;;;;18.90;18.10;;;;;;;-141.02;100.00;82518.06;5114246;28;20222;-68
2024/01/08 09:12:36;;;;;;;17.70;17.00;;;;;;;-141.02;100.00;82269.47;5115052;28;20596;-68
2024/01/08 09:15:06;;;;;;;19.13;18.33;;;;;;;-141.02;100.00;82518.06;5115007;28;20706;-67
2024/01/08 09:17:35;;;;;;;16.50;15.90;;;;;;;-141.02;100.00;82766.69;5114983;28;20193;-68
2024/01/08 09:20:02;;;;;;;18.17;17.47;;;;;;;-141.02;100.00;82518.06;5114894;28;20747;-67
2024/01/08 09:22:29;;;;;;;17.60;16.80;;;;;;;-141.02;100.00;82269.47;5115199;28;20201;-68
2024/01/08 09:24:57;;;;;;;17.27;16.57;;;;;;;-141.02;100.00;81523.75;5115166;28;20266;-67
2024/01/08 09:27:24;;;;;;;16.47;15.87;;;;;;;-141.02;100.00;81275.25;5115206;28;20199;-67
2024/01/08 09:29:51;;;;;;;17.70;17.00;;;;;;;-141.02;100.00;81275.25;5115062;28;20207;-67
2024/01/08 09:32:20;;;;;;;17.70;17.00;;;;;;;-141.02;100.00;80529.75;5114627;28;20721;-67
2024/01/08 09:34:46;;;;;;;18.27;17.47;;;;;;;-141.02;100.00;80281.31;5115036;28;20189;-69
2024/01/08 09:37:13;;;;;;;17.90;17.20;;;;;;;-141.02;100.00;80032.88;5114876;28;20203;-67
2024/01/08 09:39:41;;;;;;;17.40;16.70;;;;;;;-141.02;100.00;80032.88;5114937;28;20258;-67
2024/01/08 09:42:09;;;;;;;19.57;18.67;;;;;;;-141.02;100.00;79784.44;5114602;28;20577;-67
2024/01/08 09:44:38;;;;;;;19.20;18.30;;;;;;;-141.02;100.00;79536.03;5114098;28;20200;-68
2024/01/08 09:47:06;;;;;;;18.70;17.90;;;;;;;-141.02;100.00;79536.03;5114385;28;20193;-68
2024/01/08 09:49:35;;;;;;;18.70;17.90;;;;;;;-141.02;100.00;79039.28;5114670;28;20189;-68
2024/01/08 09:52:02;;;;;;;19.70;18.80;;;;;;;-141.02;100.00;78046.00;5114191;28;20197;-68
2024/01/08 09:54:30;;;;;;;21.00;20.00;;;;;;;-141.02;100.00;77797.72;5114647;28;20280;-67
2024/01/08 09:56:58;;;;;;;20.87;19.97;;;;;;;-141.02;100.00;77797.72;5114674;28;20284;-69
2024/01/08 09:59:26;;;;;;;18.30;17.50;;;;;;;-141.02;100.00;77549.47;5114553;28;20238;-68
2024/01/08 10:01:54;;;;;;;20.37;19.47;;;;;;;-141.02;100.00;77549.47;5114495;28;20201;-68
2024/01/08 10:04:24;;;;;;;20.07;19.17;;;;;;;-141.02;100.00;77797.72;5114363;28;20229;-68
2024/01/08 10:07:04;;;;;;;21.43;20.43;;;;;;;-141.02;100.00;78294.28;5114333;28;20197;-68
2024/01/08 10:09:31;;;;;;;18.10;17.30;;;;;;;-141.02;100.00;78542.63;5114362;28;20267;-67
2024/01/08 10:11:59;;;;;;;20.00;19.10;;;;;;;-141.02;100.00;78790.94;5114475;28;20284;-67
2024/01/08 10:14:26;;;;;;;20.70;19.73;;;;;;;-141.02;100.00;79039.28;5113854;28;20319;-68
2024/01/08 10:16:54;;;;;;;19.63;18.73;;;;;;;-141.02;100.00;78542.63;5114205;28;20193;-69
2024/01/08 10:19:23;;;;;;;19.83;18.93;;;;;;;-141.02;100.00;77797.72;5113709;28;20232;-67
2024/01/08 10:22:07;;;;;;;18.33;17.57;;;;;;;-141.02;100.00;77301.22;5113760;28;20195;-68
2024/01/08 10:24:38;;;;;;;20.60;19.70;;;;;;;-141.02;100.00;77053.00;5114030;28;20268;-68
2024/01/08 10:27:05;;;;;;;19.60;18.70;;;;;;;-141.02;100.00;77301.22;5114002;28;20189;-69
2024/01/08 10:29:32;;;;;;;20.27;19.37;;;;;;;-141.02;100.00;77301.22;5113897;28;20291;-68
2024/01/08 10:32:00;;;;;;;18.40;17.60;;;;;;;-141.02;100.00;77053.00;5113810;28;20208;-68
2024/01/08 10:34:28;;;;;;;18.67;17.87;;;;;;;-141.02;100.00;76804.81;5113440;28;20581;-71
2024/01/08 10:36:57;;;;;;;20.37;19.47;;;;;;;-141.02;100.00;76804.81;5113864;28;20197;-68
2024/01/08 10:39:30;;;;;;;19.40;18.50;;;;;;;-141.02;100.00;76556.59;5113789;28;20296;-69
2024/01/08 10:41:57;;;;;;;16.60;16.00;;;;;;;-141.02;100.00;76308.44;5113337;28;20545;-68
2024/01/08 10:44:24;;;;;;;16.97;16.27;;;;;;;-141.02;100.00;76556.59;5113529;28;20586;-68
2024/01/08 10:46:57;;;;;;;19.80;18.90;;;;;;;-141.02;100.00;75812.16;5113231;28;20714;-69
2024/01/08 10:49:32;;;;;;;18.90;18.10;;;;;;;-141.02;100.00;75812.16;5113350;28;20281;-68
2024/01/08 10:52:01;;;;;;;17.30;16.60;;;;;;;-141.02;100.00;75315.94;5113415;28;20566;-69
2024/01/08 10:54:37;;;;;;;16.10;15.50;;;;;;;-141.02;100.00;74819.81;5113443;28;20239;-72
2024/01/08 10:57:09;;;;;;;18.77;17.97;;;;;;;-141.02;100.00;74819.81;5113283;28;20189;-69
2024/01/08 10:59:37;;;;;;;19.10;18.30;;;;;;;-141.02;100.00;74819.81;5113158;28;20221;-70
2024/01/08 11:02:05;;;;;;;15.90;15.30;;;;;;;-141.02;100.00;73827.72;5113286;28;20197;-69